sensor_id;sensor_type;location;lat;lon;timestamp;temperature;humidity
9820;DHT22;4949;48.482;9.206;2023-07-29T00:03:15;18.60;91.60
9820;DHT22;4949;48.482;9.206;2023-07-29T00:08:16;18.60;91.50
9820;DHT22;4949;48.482;9.206;2023-07-29T00:13:19;18.60;91.50
9820;DHT22;4949;48.482;9.206;2023-07-29T00:18:19;18.60;91.60
9820;DHT22;4949;48.482;9.206;2023-07-29T00:23:20;18.50;91.60
9820;DHT22;4949;48.482;9.206;2023-07-29T00:28:21;18.60;91.80
9820;DHT22;4949;48.482;9.206;2023-07-29T00:33:24;18.60;91.80
9820;DHT22;4949;48.482;9.206;2023-07-29T00:38:25;18.60;91.70
9820;DHT22;4949;48.482;9.206;2023-07-29T00:43:26;18.60;91.70
9820;DHT22;4949;48.482;9.206;2023-07-29T00:48:29;18.60;91.70
9820;DHT22;4949;48.482;9.206;2023-07-29T00:53:29;18.60;91.80
9820;DHT22;4949;48.482;9.206;2023-07-29T00:58:32;18.60;92.00
9820;DHT22;4949;48.482;9.206;2023-07-29T01:03:35;18.60;92.20
9820;DHT22;4949;48.482;9.206;2023-07-29T01:08:55;18.60;92.30
9820;DHT22;4949;48.482;9.206;2023-07-29T01:14:39;18.60;92.70
9820;DHT22;4949;48.482;9.206;2023-07-29T01:19:48;18.60;92.60
9820;DHT22;4949;48.482;9.206;2023-07-29T01:24:58;18.60;92.70
9820;DHT22;4949;48.482;9.206;2023-07-29T01:30:00;18.50;92.60
9820;DHT22;4949;48.482;9.206;2023-07-29T01:35:15;18.60;92.90
9820;DHT22;4949;48.482;9.206;2023-07-29T01:40:22;18.60;93.10
9820;DHT22;4949;48.482;9.206;2023-07-29T01:45:29;18.60;93.00
9820;DHT22;4949;48.482;9.206;2023-07-29T01:50:32;18.60;92.90
9820;DHT22;4949;48.482;9.206;2023-07-29T01:55:36;18.60;92.90
9820;DHT22;4949;48.482;9.206;2023-07-29T02:00:37;18.50;92.80
9820;DHT22;4949;48.482;9.206;2023-07-29T02:05:40;18.50;93.00
9820;DHT22;4949;48.482;9.206;2023-07-29T02:10:42;18.40;93.10
9820;DHT22;4949;48.482;9.206;2023-07-29T02:15:45;18.40;93.30
9820;DHT22;4949;48.482;9.206;2023-07-29T02:20:49;18.30;93.30
9820;DHT22;4949;48.482;9.206;2023-07-29T02:25:50;18.30;93.40
9820;DHT22;4949;48.482;9.206;2023-07-29T02:31:16;18.20;93.40
9820;DHT22;4949;48.482;9.206;2023-07-29T02:36:23;18.10;93.40
9820;DHT22;4949;48.482;9.206;2023-07-29T02:41:24;18.00;93.50
9820;DHT22;4949;48.482;9.206;2023-07-29T02:46:25;18.00;93.50
9820;DHT22;4949;48.482;9.206;2023-07-29T02:51:26;18.00;93.60
9820;DHT22;4949;48.482;9.206;2023-07-29T02:56:29;18.00;93.60
9820;DHT22;4949;48.482;9.206;2023-07-29T03:01:33;18.00;93.80
9820;DHT22;4949;48.482;9.206;2023-07-29T03:06:34;18.00;93.70
9820;DHT22;4949;48.482;9.206;2023-07-29T03:11:34;18.00;93.60
9820;DHT22;4949;48.482;9.206;2023-07-29T03:16:38;18.00;93.50
9820;DHT22;4949;48.482;9.206;2023-07-29T03:21:41;18.00;93.70
9820;DHT22;4949;48.482;9.206;2023-07-29T03:26:41;18.00;93.80
9820;DHT22;4949;48.482;9.206;2023-07-29T03:31:42;18.00;93.90
9820;DHT22;4949;48.482;9.206;2023-07-29T03:36:45;17.90;94.00
9820;DHT22;4949;48.482;9.206;2023-07-29T03:41:48;17.90;94.00
9820;DHT22;4949;48.482;9.206;2023-07-29T03:46:49;17.90;94.10
9820;DHT22;4949;48.482;9.206;2023-07-29T03:51:54;17.80;94.10
9820;DHT22;4949;48.482;9.206;2023-07-29T03:56:57;17.80;94.10
9820;DHT22;4949;48.482;9.206;2023-07-29T04:01:58;17.80;94.20
9820;DHT22;4949;48.482;9.206;2023-07-29T04:07:01;17.80;94.40
9820;DHT22;4949;48.482;9.206;2023-07-29T04:12:04;17.80;94.40
9820;DHT22;4949;48.482;9.206;2023-07-29T04:17:08;17.80;94.40
9820;DHT22;4949;48.482;9.206;2023-07-29T04:22:11;17.80;94.50
9820;DHT22;4949;48.482;9.206;2023-07-29T04:27:12;17.90;94.50
9820;DHT22;4949;48.482;9.206;2023-07-29T04:32:12;17.90;94.50
9820;DHT22;4949;48.482;9.206;2023-07-29T04:37:13;17.90;94.60
9820;DHT22;4949;48.482;9.206;2023-07-29T04:42:14;17.90;94.70
9820;DHT22;4949;48.482;9.206;2023-07-29T04:47:14;17.90;94.70
9820;DHT22;4949;48.482;9.206;2023-07-29T04:52:17;18.00;94.70
9820;DHT22;4949;48.482;9.206;2023-07-29T04:57:20;18.00;94.70
9820;DHT22;4949;48.482;9.206;2023-07-29T05:02:20;18.00;94.80
9820;DHT22;4949;48.482;9.206;2023-07-29T05:07:21;18.00;94.80
9820;DHT22;4949;48.482;9.206;2023-07-29T05:12:22;18.10;94.60
9820;DHT22;4949;48.482;9.206;2023-07-29T05:17:23;18.10;94.90
9820;DHT22;4949;48.482;9.206;2023-07-29T05:22:24;17.90;95.00
9820;DHT22;4949;48.482;9.206;2023-07-29T05:27:27;17.90;94.70
9820;DHT22;4949;48.482;9.206;2023-07-29T05:32:30;18.10;94.30
9820;DHT22;4949;48.482;9.206;2023-07-29T05:37:31;18.10;94.00
9820;DHT22;4949;48.482;9.206;2023-07-29T05:42:32;18.20;94.00
9820;DHT22;4949;48.482;9.206;2023-07-29T05:47:36;18.20;94.10
9820;DHT22;4949;48.482;9.206;2023-07-29T05:52:44;18.30;94.00
9820;DHT22;4949;48.482;9.206;2023-07-29T05:57:44;18.40;94.30
9820;DHT22;4949;48.482;9.206;2023-07-29T06:02:47;18.50;94.50
9820;DHT22;4949;48.482;9.206;2023-07-29T06:07:48;18.60;94.50
9820;DHT22;4949;48.482;9.206;2023-07-29T06:12:51;18.80;94.70
9820;DHT22;4949;48.482;9.206;2023-07-29T06:17:57;18.90;94.30
9820;DHT22;4949;48.482;9.206;2023-07-29T06:22:57;19.00;93.90
9820;DHT22;4949;48.482;9.206;2023-07-29T06:27:58;19.10;93.80
9820;DHT22;4949;48.482;9.206;2023-07-29T06:33:03;19.20;93.60
9820;DHT22;4949;48.482;9.206;2023-07-29T06:38:04;19.30;93.40
9820;DHT22;4949;48.482;9.206;2023-07-29T06:43:05;19.30;93.20
9820;DHT22;4949;48.482;9.206;2023-07-29T06:48:06;19.40;92.80
9820;DHT22;4949;48.482;9.206;2023-07-29T06:53:11;19.50;92.40
9820;DHT22;4949;48.482;9.206;2023-07-29T06:58:12;19.50;92.50
9820;DHT22;4949;48.482;9.206;2023-07-29T07:03:13;19.50;93.10
9820;DHT22;4949;48.482;9.206;2023-07-29T07:08:13;19.40;94.30
9820;DHT22;4949;48.482;9.206;2023-07-29T07:13:17;19.30;95.40
9820;DHT22;4949;48.482;9.206;2023-07-29T07:18:17;19.20;95.40
9820;DHT22;4949;48.482;9.206;2023-07-29T07:23:20;19.20;94.70
9820;DHT22;4949;48.482;9.206;2023-07-29T07:28:21;19.30;94.70
9820;DHT22;4949;48.482;9.206;2023-07-29T07:33:24;19.40;94.80
9820;DHT22;4949;48.482;9.206;2023-07-29T07:38:24;19.40;94.70
9820;DHT22;4949;48.482;9.206;2023-07-29T07:43:25;19.60;94.70
9820;DHT22;4949;48.482;9.206;2023-07-29T07:48:28;19.70;94.70
9820;DHT22;4949;48.482;9.206;2023-07-29T07:53:33;19.70;94.70
9820;DHT22;4949;48.482;9.206;2023-07-29T07:58:36;19.80;94.40
9820;DHT22;4949;48.482;9.206;2023-07-29T08:03:37;19.80;93.90
9820;DHT22;4949;48.482;9.206;2023-07-29T08:08:38;19.80;93.70
9820;DHT22;4949;48.482;9.206;2023-07-29T08:13:41;19.80;93.70
9820;DHT22;4949;48.482;9.206;2023-07-29T08:18:41;19.80;93.90
9820;DHT22;4949;48.482;9.206;2023-07-29T08:23:42;19.70;94.50
9820;DHT22;4949;48.482;9.206;2023-07-29T08:28:43;19.80;94.40
9820;DHT22;4949;48.482;9.206;2023-07-29T08:33:44;19.80;94.40
9820;DHT22;4949;48.482;9.206;2023-07-29T08:38:47;19.80;94.50
9820;DHT22;4949;48.482;9.206;2023-07-29T08:49:06;19.90;95.30
9820;DHT22;4949;48.482;9.206;2023-07-29T08:54:08;19.90;94.70
9820;DHT22;4949;48.482;9.206;2023-07-29T08:59:15;20.00;95.40
9820;DHT22;4949;48.482;9.206;2023-07-29T09:04:17;20.00;95.10
9820;DHT22;4949;48.482;9.206;2023-07-29T09:09:24;20.10;95.30
9820;DHT22;4949;48.482;9.206;2023-07-29T09:14:25;20.20;95.40
9820;DHT22;4949;48.482;9.206;2023-07-29T09:19:27;20.50;96.20
9820;DHT22;4949;48.482;9.206;2023-07-29T09:24:33;20.70;96.50
9820;DHT22;4949;48.482;9.206;2023-07-29T09:29:36;20.90;95.10
9820;DHT22;4949;48.482;9.206;2023-07-29T09:34:41;21.00;95.40
9820;DHT22;4949;48.482;9.206;2023-07-29T09:39:45;21.20;94.50
9820;DHT22;4949;48.482;9.206;2023-07-29T09:44:49;21.30;93.70
9820;DHT22;4949;48.482;9.206;2023-07-29T09:49:56;21.40;92.80
9820;DHT22;4949;48.482;9.206;2023-07-29T09:54:57;21.60;92.10
9820;DHT22;4949;48.482;9.206;2023-07-29T09:59:58;21.70;91.30
9820;DHT22;4949;48.482;9.206;2023-07-29T10:05:06;21.80;91.10
9820;DHT22;4949;48.482;9.206;2023-07-29T10:10:12;21.80;90.00
9820;DHT22;4949;48.482;9.206;2023-07-29T10:15:14;21.90;90.00
9820;DHT22;4949;48.482;9.206;2023-07-29T10:20:14;22.00;89.10
9820;DHT22;4949;48.482;9.206;2023-07-29T10:25:25;22.20;86.40
9820;DHT22;4949;48.482;9.206;2023-07-29T10:30:34;22.40;87.50
9820;DHT22;4949;48.482;9.206;2023-07-29T10:35:35;22.60;86.90
9820;DHT22;4949;48.482;9.206;2023-07-29T10:56:35;23.30;81.10
9820;DHT22;4949;48.482;9.206;2023-07-29T11:01:39;23.50;81.10
9820;DHT22;4949;48.482;9.206;2023-07-29T11:17:51;23.80;75.40
9820;DHT22;4949;48.482;9.206;2023-07-29T11:23:01;23.90;75.50
9820;DHT22;4949;48.482;9.206;2023-07-29T11:28:03;24.00;75.80
9820;DHT22;4949;48.482;9.206;2023-07-29T11:33:04;24.00;74.90
9820;DHT22;4949;48.482;9.206;2023-07-29T11:38:07;23.70;73.80
9820;DHT22;4949;48.482;9.206;2023-07-29T11:43:08;23.70;74.40
9820;DHT22;4949;48.482;9.206;2023-07-29T11:48:08;23.70;73.10
9820;DHT22;4949;48.482;9.206;2023-07-29T11:53:11;23.70;73.70
9820;DHT22;4949;48.482;9.206;2023-07-29T11:58:11;23.60;72.60
9820;DHT22;4949;48.482;9.206;2023-07-29T12:03:12;23.50;72.90
9820;DHT22;4949;48.482;9.206;2023-07-29T12:08:14;23.60;73.30
9820;DHT22;4949;48.482;9.206;2023-07-29T12:13:17;23.60;71.20
9820;DHT22;4949;48.482;9.206;2023-07-29T12:18:18;23.70;71.00
9820;DHT22;4949;48.482;9.206;2023-07-29T12:23:24;23.80;71.90
9820;DHT22;4949;48.482;9.206;2023-07-29T12:28:26;24.10;71.30
9820;DHT22;4949;48.482;9.206;2023-07-29T12:33:35;24.30;70.20
9820;DHT22;4949;48.482;9.206;2023-07-29T12:38:41;24.30;69.90
9820;DHT22;4949;48.482;9.206;2023-07-29T12:43:47;24.30;71.10
9820;DHT22;4949;48.482;9.206;2023-07-29T12:48:48;24.30;71.70
9820;DHT22;4949;48.482;9.206;2023-07-29T12:53:49;24.50;71.70
9820;DHT22;4949;48.482;9.206;2023-07-29T12:58:49;24.50;69.80
9820;DHT22;4949;48.482;9.206;2023-07-29T13:03:50;24.70;70.00
9820;DHT22;4949;48.482;9.206;2023-07-29T13:08:52;24.70;68.90
9820;DHT22;4949;48.482;9.206;2023-07-29T13:13:52;24.90;68.00
9820;DHT22;4949;48.482;9.206;2023-07-29T13:18:53;24.80;69.40
9820;DHT22;4949;48.482;9.206;2023-07-29T13:23:54;25.00;68.30
9820;DHT22;4949;48.482;9.206;2023-07-29T13:28:55;25.30;66.90
9820;DHT22;4949;48.482;9.206;2023-07-29T13:33:58;25.20;66.40
9820;DHT22;4949;48.482;9.206;2023-07-29T13:38:59;25.20;66.90
9820;DHT22;4949;48.482;9.206;2023-07-29T13:44:02;25.40;65.80
9820;DHT22;4949;48.482;9.206;2023-07-29T13:49:03;25.40;65.50
9820;DHT22;4949;48.482;9.206;2023-07-29T13:54:06;25.30;64.80
9820;DHT22;4949;48.482;9.206;2023-07-29T13:59:09;25.30;66.80
9820;DHT22;4949;48.482;9.206;2023-07-29T14:04:13;25.10;66.50
9820;DHT22;4949;48.482;9.206;2023-07-29T14:09:14;25.20;66.40
9820;DHT22;4949;48.482;9.206;2023-07-29T14:14:17;25.30;64.80
9820;DHT22;4949;48.482;9.206;2023-07-29T14:19:17;25.40;63.70
9820;DHT22;4949;48.482;9.206;2023-07-29T14:24:18;25.50;63.20
9820;DHT22;4949;48.482;9.206;2023-07-29T14:29:25;25.40;64.10
9820;DHT22;4949;48.482;9.206;2023-07-29T14:34:26;25.70;63.20
9820;DHT22;4949;48.482;9.206;2023-07-29T14:39:27;25.80;62.20
9820;DHT22;4949;48.482;9.206;2023-07-29T14:44:27;25.90;61.20
9820;DHT22;4949;48.482;9.206;2023-07-29T14:49:31;26.00;60.40
9820;DHT22;4949;48.482;9.206;2023-07-29T14:54:32;25.90;60.40
9820;DHT22;4949;48.482;9.206;2023-07-29T14:59:33;25.80;60.70
9820;DHT22;4949;48.482;9.206;2023-07-29T15:04:34;25.90;60.60
9820;DHT22;4949;48.482;9.206;2023-07-29T15:09:34;25.80;60.80
9820;DHT22;4949;48.482;9.206;2023-07-29T15:14:37;25.60;59.80
9820;DHT22;4949;48.482;9.206;2023-07-29T15:19:41;25.60;60.50
9820;DHT22;4949;48.482;9.206;2023-07-29T15:24:42;25.50;60.50
9820;DHT22;4949;48.482;9.206;2023-07-29T15:29:44;25.50;60.20
9820;DHT22;4949;48.482;9.206;2023-07-29T15:34:44;25.40;61.00
9820;DHT22;4949;48.482;9.206;2023-07-29T15:39:45;25.50;61.40
9820;DHT22;4949;48.482;9.206;2023-07-29T15:44:46;25.50;62.30
9820;DHT22;4949;48.482;9.206;2023-07-29T15:49:49;25.60;61.40
9820;DHT22;4949;48.482;9.206;2023-07-29T15:54:54;25.70;63.20
9820;DHT22;4949;48.482;9.206;2023-07-29T15:59:55;25.60;64.20
9820;DHT22;4949;48.482;9.206;2023-07-29T16:04:58;25.50;65.50
9820;DHT22;4949;48.482;9.206;2023-07-29T16:10:01;25.40;65.60
9820;DHT22;4949;48.482;9.206;2023-07-29T16:15:07;25.20;65.20
9820;DHT22;4949;48.482;9.206;2023-07-29T16:20:08;25.20;65.60
9820;DHT22;4949;48.482;9.206;2023-07-29T16:25:09;25.10;65.70
9820;DHT22;4949;48.482;9.206;2023-07-29T16:30:10;25.00;64.80
9820;DHT22;4949;48.482;9.206;2023-07-29T16:35:13;24.70;65.50
9820;DHT22;4949;48.482;9.206;2023-07-29T16:40:14;24.60;65.10
9820;DHT22;4949;48.482;9.206;2023-07-29T16:45:15;24.60;65.60
9820;DHT22;4949;48.482;9.206;2023-07-29T16:50:18;24.30;66.90
9820;DHT22;4949;48.482;9.206;2023-07-29T16:55:21;24.30;66.90
9820;DHT22;4949;48.482;9.206;2023-07-29T17:00:22;24.20;67.10
9820;DHT22;4949;48.482;9.206;2023-07-29T17:05:22;24.20;68.80
9820;DHT22;4949;48.482;9.206;2023-07-29T17:10:23;24.00;70.10
9820;DHT22;4949;48.482;9.206;2023-07-29T17:15:26;24.10;71.10
9820;DHT22;4949;48.482;9.206;2023-07-29T17:20:30;23.90;72.40
9820;DHT22;4949;48.482;9.206;2023-07-29T17:25:30;23.70;71.40
9820;DHT22;4949;48.482;9.206;2023-07-29T17:30:33;23.60;72.20
9820;DHT22;4949;48.482;9.206;2023-07-29T17:35:36;23.40;73.40
9820;DHT22;4949;48.482;9.206;2023-07-29T17:40:36;23.40;74.70
9820;DHT22;4949;48.482;9.206;2023-07-29T17:45:39;23.20;76.40
9820;DHT22;4949;48.482;9.206;2023-07-29T17:50:41;22.90;80.30
9820;DHT22;4949;48.482;9.206;2023-07-29T17:55:42;22.80;81.80
9820;DHT22;4949;48.482;9.206;2023-07-29T18:00:43;22.80;82.50
9820;DHT22;4949;48.482;9.206;2023-07-29T18:05:48;22.70;83.90
9820;DHT22;4949;48.482;9.206;2023-07-29T18:10:49;22.60;83.50
9820;DHT22;4949;48.482;9.206;2023-07-29T18:15:55;22.50;84.10
9820;DHT22;4949;48.482;9.206;2023-07-29T18:20:58;22.50;84.30
9820;DHT22;4949;48.482;9.206;2023-07-29T18:25:59;22.50;84.30
9820;DHT22;4949;48.482;9.206;2023-07-29T18:30:59;22.50;84.50
9820;DHT22;4949;48.482;9.206;2023-07-29T18:36:03;22.50;84.90
9820;DHT22;4949;48.482;9.206;2023-07-29T18:41:04;22.40;85.50
9820;DHT22;4949;48.482;9.206;2023-07-29T18:46:04;22.40;86.00
9820;DHT22;4949;48.482;9.206;2023-07-29T18:51:09;22.40;86.60
9820;DHT22;4949;48.482;9.206;2023-07-29T18:56:09;22.30;86.70
9820;DHT22;4949;48.482;9.206;2023-07-29T19:01:12;22.20;86.70
9820;DHT22;4949;48.482;9.206;2023-07-29T19:06:13;22.20;87.10
9820;DHT22;4949;48.482;9.206;2023-07-29T19:11:14;22.10;86.90
9820;DHT22;4949;48.482;9.206;2023-07-29T19:16:17;22.10;87.50
9820;DHT22;4949;48.482;9.206;2023-07-29T19:21:20;22.10;87.80
9820;DHT22;4949;48.482;9.206;2023-07-29T19:26:23;22.10;87.90
9820;DHT22;4949;48.482;9.206;2023-07-29T19:31:24;22.00;88.10
9820;DHT22;4949;48.482;9.206;2023-07-29T19:36:25;22.00;87.60
9820;DHT22;4949;48.482;9.206;2023-07-29T19:41:28;21.90;87.10
9820;DHT22;4949;48.482;9.206;2023-07-29T19:46:29;21.90;87.80
9820;DHT22;4949;48.482;9.206;2023-07-29T19:51:30;21.90;88.00
9820;DHT22;4949;48.482;9.206;2023-07-29T19:56:30;21.80;88.50
9820;DHT22;4949;48.482;9.206;2023-07-29T20:01:31;21.80;88.30
9820;DHT22;4949;48.482;9.206;2023-07-29T20:06:36;21.80;87.50
9820;DHT22;4949;48.482;9.206;2023-07-29T20:11:39;21.70;87.80
9820;DHT22;4949;48.482;9.206;2023-07-29T20:16:42;21.70;88.20
9820;DHT22;4949;48.482;9.206;2023-07-29T20:21:45;21.60;88.30
9820;DHT22;4949;48.482;9.206;2023-07-29T20:26:46;21.60;86.70
9820;DHT22;4949;48.482;9.206;2023-07-29T20:31:50;21.60;86.70
9820;DHT22;4949;48.482;9.206;2023-07-29T20:36:51;21.50;85.70
9820;DHT22;4949;48.482;9.206;2023-07-29T20:41:52;21.50;85.50
9820;DHT22;4949;48.482;9.206;2023-07-29T20:46:55;21.40;85.30
9820;DHT22;4949;48.482;9.206;2023-07-29T20:51:56;21.60;83.30
9820;DHT22;4949;48.482;9.206;2023-07-29T20:56:56;21.50;81.50
9820;DHT22;4949;48.482;9.206;2023-07-29T21:01:57;21.40;81.20
9820;DHT22;4949;48.482;9.206;2023-07-29T21:06:59;21.40;81.90
9820;DHT22;4949;48.482;9.206;2023-07-29T21:12:00;21.30;82.80
9820;DHT22;4949;48.482;9.206;2023-07-29T21:17:03;21.20;83.30
9820;DHT22;4949;48.482;9.206;2023-07-29T21:22:04;21.10;83.80
9820;DHT22;4949;48.482;9.206;2023-07-29T21:27:05;21.10;84.10
9820;DHT22;4949;48.482;9.206;2023-07-29T21:32:08;21.10;84.40
9820;DHT22;4949;48.482;9.206;2023-07-29T21:37:09;21.10;84.60
9820;DHT22;4949;48.482;9.206;2023-07-29T21:42:12;21.10;84.10
9820;DHT22;4949;48.482;9.206;2023-07-29T21:47:16;21.00;84.20
9820;DHT22;4949;48.482;9.206;2023-07-29T21:52:19;21.00;84.20
9820;DHT22;4949;48.482;9.206;2023-07-29T21:57:23;21.10;84.00
9820;DHT22;4949;48.482;9.206;2023-07-29T22:02:24;21.00;84.00
9820;DHT22;4949;48.482;9.206;2023-07-29T22:07:24;21.00;84.20
9820;DHT22;4949;48.482;9.206;2023-07-29T22:12:25;21.00;84.50
9820;DHT22;4949;48.482;9.206;2023-07-29T22:17:34;20.90;84.80
9820;DHT22;4949;48.482;9.206;2023-07-29T22:22:37;20.90;85.20
9820;DHT22;4949;48.482;9.206;2023-07-29T22:27:37;21.00;85.30
9820;DHT22;4949;48.482;9.206;2023-07-29T22:32:38;20.90;85.20
9820;DHT22;4949;48.482;9.206;2023-07-29T22:37:39;20.90;85.60
9820;DHT22;4949;48.482;9.206;2023-07-29T22:42:40;20.80;86.30
9820;DHT22;4949;48.482;9.206;2023-07-29T22:47:41;20.80;86.60
9820;DHT22;4949;48.482;9.206;2023-07-29T22:52:41;20.70;87.00
9820;DHT22;4949;48.482;9.206;2023-07-29T22:57:44;20.70;87.60
9820;DHT22;4949;48.482;9.206;2023-07-29T23:02:47;20.70;87.70
9820;DHT22;4949;48.482;9.206;2023-07-29T23:07:48;20.60;87.70
9820;DHT22;4949;48.482;9.206;2023-07-29T23:12:49;20.60;88.20
9820;DHT22;4949;48.482;9.206;2023-07-29T23:17:50;20.50;90.20
9820;DHT22;4949;48.482;9.206;2023-07-29T23:22:50;20.50;90.20
9820;DHT22;4949;48.482;9.206;2023-07-29T23:27:53;20.40;90.70
9820;DHT22;4949;48.482;9.206;2023-07-29T23:32:54;20.30;91.10
9820;DHT22;4949;48.482;9.206;2023-07-29T23:37:55;20.30;91.60
9820;DHT22;4949;48.482;9.206;2023-07-29T23:42:58;20.30;91.10
9820;DHT22;4949;48.482;9.206;2023-07-29T23:48:01;20.30;91.10
9820;DHT22;4949;48.482;9.206;2023-07-29T23:53:02;20.20;91.60
9820;DHT22;4949;48.482;9.206;2023-07-29T23:58:03;20.10;91.80
